Time;durP1;ratioP1;P1;durP2;ratioP2;P2;SDS_P1;SDS_P2;PMS_P1;PMS_P2;Temp;Humidity;BMP_temperature;BMP_pressure;BME280_temperature;BME280_humidity;BME280_pressure;Samples;Min_cycle;Max_cycle;Signal;HPM_P1;HPM_P2
2021/01/18 00:01:41;;;;;;;105.63;34.50;;;;;;;-12.67;85.85;98543.81;5033761;28;20152;-70
2021/01/18 00:04:07;;;;;;;118.72;37.20;;;;;;;-12.66;85.55;98531.22;5033658;28;20038;-69
2021/01/18 00:06:34;;;;;;;109.22;33.88;;;;;;;-12.65;84.99;98543.06;5033355;28;20061;-71
2021/01/18 00:09:00;;;;;;;103.78;30.77;;;;;;;-12.83;85.27;98542.53;5031901;28;20063;-70
2021/01/18 00:11:26;;;;;;;58.58;17.35;;;;;;;-13.10;85.77;98527.44;5033629;28;20045;-70
2021/01/18 00:13:54;;;;;;;80.60;26.77;;;;;;;-13.09;86.25;98529.16;5033541;28;20045;-69
2021/01/18 00:16:22;;;;;;;63.95;19.75;;;;;;;-13.09;86.22;98526.66;5039551;28;20473;-69
2021/01/18 00:18:48;;;;;;;83.28;26.88;;;;;;;-13.05;86.67;98546.97;5053369;28;20064;-71
2021/01/18 00:21:15;;;;;;;71.60;21.95;;;;;;;-13.08;86.08;98546.00;5036136;28;20100;-70
2021/01/18 00:23:42;;;;;;;92.97;26.45;;;;;;;-13.07;86.70;98545.19;5036001;28;20124;-70
2021/01/18 00:26:09;;;;;;;65.95;19.98;;;;;;;-13.09;86.26;98549.34;5052963;28;20049;-70
2021/01/18 00:28:36;;;;;;;103.97;32.03;;;;;;;-13.06;86.37;98550.28;5019244;28;20049;-69
2021/01/18 00:31:04;;;;;;;78.60;25.67;;;;;;;-13.24;86.53;98534.59;5035409;28;20461;-70
2021/01/18 00:33:32;;;;;;;81.07;23.95;;;;;;;-13.18;86.53;98554.97;5034832;28;20052;-69
2021/01/18 00:35:59;;;;;;;99.75;29.17;;;;;;;-13.26;86.38;98551.38;5035151;28;20048;-69
2021/01/18 00:38:25;;;;;;;75.60;24.10;;;;;;;-13.30;86.83;98550.41;5034980;28;20052;-70
2021/01/18 00:40:51;;;;;;;101.43;31.90;;;;;;;-13.27;86.18;98542.94;5052854;28;20405;-69
2021/01/18 00:43:17;;;;;;;105.85;29.70;;;;;;;-13.41;86.39;98542.53;5052523;28;20199;-70
2021/01/18 00:45:43;;;;;;;84.78;24.48;;;;;;;-13.41;86.76;98557.69;5052645;28;20078;-69
2021/01/18 00:48:09;;;;;;;72.40;20.25;;;;;;;-13.36;86.80;98563.75;5034259;28;20420;-70
2021/01/18 00:50:35;;;;;;;102.35;30.17;;;;;;;-13.32;86.70;98557.09;5053013;28;20045;-74
2021/01/18 00:53:01;;;;;;;96.38;29.13;;;;;;;-13.32;86.33;98562.13;5052939;28;20051;-71
2021/01/18 00:55:27;;;;;;;81.70;22.42;;;;;;;-13.48;85.94;98543.19;5053096;28;20053;-70
2021/01/18 00:57:54;;;;;;;104.35;29.63;;;;;;;-13.49;86.48;98571.72;5034707;28;20041;-71
2021/01/18 01:00:29;;;;;;;90.32;24.70;;;;;;;-13.55;87.01;98538.75;5035078;28;20069;-70
2021/01/18 01:02:57;;;;;;;96.20;29.05;;;;;;;-13.48;86.46;98565.88;5052265;28;20107;-70
2021/01/18 01:05:27;;;;;;;96.20;28.10;;;;;;;-13.36;86.86;98561.22;5052819;28;20131;-70
2021/01/18 01:07:58;;;;;;;102.07;26.60;;;;;;;-13.48;86.11;98568.41;5052391;28;20049;-71
2021/01/18 01:10:30;;;;;;;91.22;26.80;;;;;;;-13.46;86.99;98571.81;5052829;28;20060;-69
2021/01/18 01:13:02;;;;;;;108.10;32.38;;;;;;;-13.44;86.55;98569.34;5035332;28;20052;-69
2021/01/18 01:15:28;;;;;;;71.85;19.40;;;;;;;-13.45;86.72;98571.03;5052938;28;20404;-70
2021/01/18 01:17:55;;;;;;;115.25;30.00;;;;;;;-13.47;86.43;98571.78;5053556;28;20433;-70
2021/01/18 01:20:22;;;;;;;79.60;23.88;;;;;;;-13.54;86.25;98553.09;5053113;28;20095;-70
2021/01/18 01:22:49;;;;;;;109.43;32.00;;;;;;;-13.41;86.64;98566.91;5052064;28;20065;-70
2021/01/18 01:25:18;;;;;;;126.03;36.13;;;;;;;-13.37;86.56;98572.09;5052452;28;20045;-72
2021/01/18 01:27:45;;;;;;;79.63;24.88;;;;;;;-13.54;86.66;98560.66;5052264;28;20041;-69
2021/01/18 01:30:15;;;;;;;88.88;27.75;;;;;;;-13.58;86.63;98563.88;5052030;28;20128;-70
2021/01/18 01:32:48;;;;;;;93.10;27.52;;;;;;;-13.67;87.03;98543.41;5018007;28;20045;-70
2021/01/18 01:35:28;;;;;;;80.88;20.58;;;;;;;-13.66;87.00;98566.16;5052298;28;20508;-69
2021/01/18 01:37:56;;;;;;;86.60;23.45;;;;;;;-13.71;86.61;98560.97;5053321;28;20157;-72
2021/01/18 01:40:22;;;;;;;95.95;29.23;;;;;;;-13.76;86.43;98549.88;5052415;28;20045;-70
2021/01/18 01:42:50;;;;;;;111.57;31.42;;;;;;;-13.75;86.41;98546.53;5052349;28;20056;-71
2021/01/18 01:45:18;;;;;;;78.57;25.17;;;;;;;-13.61;86.23;98567.13;5052792;28;20049;-71
2021/01/18 01:47:50;;;;;;;114.55;32.13;;;;;;;-13.67;86.25;98546.78;5052408;28;20052;-71
2021/01/18 01:50:27;;;;;;;100.53;30.38;;;;;;;-13.74;86.22;98539.84;5034954;28;20402;-70
2021/01/18 01:53:17;;;;;;;103.68;27.27;;;;;;;-13.70;86.33;98560.16;5035184;28;20136;-72
2021/01/18 01:55:43;;;;;;;97.30;27.10;;;;;;;-13.94;86.77;98545.09;5052998;28;20072;-71
2021/01/18 01:58:10;;;;;;;82.45;23.75;;;;;;;-13.91;86.96;98555.28;5052091;28;20048;-71
2021/01/18 02:00:39;;;;;;;111.38;31.55;;;;;;;-13.77;86.86;98565.81;5035353;28;20514;-70
2021/01/18 02:03:11;;;;;;;94.10;27.77;;;;;;;-13.75;86.37;98565.84;5056577;28;20048;-69
2021/01/18 02:05:39;;;;;;;93.55;27.00;;;;;;;-13.89;86.47;98542.72;5056190;28;20118;-69
2021/01/18 02:08:07;;;;;;;56.20;19.23;;;;;;;-13.81;86.58;98556.41;5055543;28;20392;-71
2021/01/18 02:10:35;;;;;;;62.05;20.67;;;;;;;-13.95;87.02;98537.47;5055270;28;20102;-69
2021/01/18 02:13:14;;;;;;;85.63;24.67;;;;;;;-13.81;87.28;98546.34;5055557;28;20057;-70
2021/01/18 02:15:46;;;;;;;90.82;27.55;;;;;;;-13.79;86.36;98561.50;5037277;28;20460;-73
2021/01/18 02:18:28;;;;;;;88.75;25.50;;;;;;;-13.75;85.94;98559.13;5055779;28;20515;-70
2021/01/18 02:21:25;;;;;;;70.90;21.85;;;;;;;-13.89;86.26;98552.81;5021270;28;20128;-71
2021/01/18 02:24:35;;;;;;;81.22;23.73;;;;;;;-13.90;86.27;98566.19;5055651;28;20049;-71
2021/01/18 02:27:24;;;;;;;90.88;26.02;;;;;;;-13.88;85.93;98545.28;5020587;28;20040;-71
2021/01/18 02:30:12;;;;;;;93.50;27.35;;;;;;;-13.80;85.84;98554.78;5037127;28;20068;-69
2021/01/18 02:33:28;;;;;;;70.50;17.75;;;;;;;-13.95;86.33;98562.69;5054881;28;20045;-70
2021/01/18 02:36:05;;;;;;;74.50;20.75;;;;;;;-14.00;86.12;98557.47;5055478;28;20045;-69
2021/01/18 02:38:42;;;;;;;67.35;21.45;;;;;;;-14.05;86.80;98549.78;5037806;28;20124;-70
2021/01/18 02:41:39;;;;;;;92.85;25.80;;;;;;;-13.89;86.65;98557.84;5038085;28;20041;-71
2021/01/18 02:44:08;;;;;;;88.35;24.58;;;;;;;-13.89;86.04;98552.81;5028696;28;20118;-69
2021/01/18 02:46:36;;;;;;;80.78;22.95;;;;;;;-13.94;86.55;98551.81;5037186;28;20041;-70
2021/01/18 02:49:05;;;;;;;77.20;22.45;;;;;;;-14.06;86.73;98534.59;5037723;28;20056;-69
2021/01/18 02:51:34;;;;;;;62.83;19.50;;;;;;;-13.97;87.30;98557.59;5021124;28;20057;-71
2021/01/18 02:54:02;;;;;;;71.30;21.73;;;;;;;-14.02;86.48;98535.56;5036907;28;20055;-72
2021/01/18 02:56:33;;;;;;;87.40;24.13;;;;;;;-14.04;86.61;98540.53;5054900;28;20423;-71
2021/01/18 02:59:03;;;;;;;54.47;18.88;;;;;;;-14.06;86.38;98535.47;5054591;28;20381;-71
2021/01/18 03:01:53;;;;;;;68.78;21.20;;;;;;;-14.11;87.02;98541.16;5054617;28;20464;-70
2021/01/18 03:05:02;;;;;;;74.68;24.85;;;;;;;-14.06;86.02;98547.19;5054265;28;20048;-70
2021/01/18 03:07:44;;;;;;;68.72;20.63;;;;;;;-14.20;85.98;98541.72;5054129;28;20049;-69
2021/01/18 03:10:40;;;;;;;81.57;23.90;;;;;;;-14.06;86.52;98552.25;5036852;28;20425;-69
2021/01/18 03:13:31;;;;;;;48.58;15.98;;;;;;;-14.24;86.44;98539.88;5036801;28;20106;-70
2021/01/18 03:16:12;;;;;;;78.03;24.23;;;;;;;-14.17;86.93;98546.84;5036622;28;20056;-70
2021/01/18 03:18:42;;;;;;;82.85;26.92;;;;;;;-14.14;86.28;98536.03;5037181;28;20051;-69
2021/01/18 03:21:09;;;;;;;56.13;18.50;;;;;;;-14.11;86.32;98536.97;5037409;28;20556;-70
2021/01/18 03:23:42;;;;;;;76.90;25.58;;;;;;;-14.05;86.13;98538.84;5036002;28;20045;-70
2021/01/18 03:26:10;;;;;;;74.75;23.10;;;;;;;-14.16;86.20;98512.44;5054253;28;20455;-70
2021/01/18 03:28:36;;;;;;;80.00;21.65;;;;;;;-14.11;85.86;98534.47;5054565;28;20465;-71
2021/01/18 03:31:02;;;;;;;68.70;19.63;;;;;;;-14.21;85.91;98532.44;5036242;28;20049;-69
2021/01/18 03:33:28;;;;;;;56.13;16.58;;;;;;;-14.46;86.76;98511.44;5054040;28;20515;-69
2021/01/18 03:35:55;;;;;;;53.40;20.02;;;;;;;-14.38;87.13;98526.81;5053684;28;20076;-71
2021/01/18 03:38:23;;;;;;;66.15;22.55;;;;;;;-14.37;87.22;98530.22;5053863;28;20068;-70
2021/01/18 03:40:50;;;;;;;55.40;17.55;;;;;;;-14.48;87.01;98530.69;5053434;28;20083;-71
2021/01/18 03:43:20;;;;;;;58.63;21.38;;;;;;;-14.61;87.41;98526.06;5053534;28;20094;-70
2021/01/18 03:45:46;;;;;;;58.10;19.33;;;;;;;-14.47;87.97;98552.56;5053767;28;20120;-74
2021/01/18 03:48:13;;;;;;;59.05;16.45;;;;;;;-14.49;87.60;98539.03;5035708;28;20049;-71
2021/01/18 03:50:40;;;;;;;73.80;21.83;;;;;;;-14.46;87.55;98536.63;5036209;28;20049;-70
2021/01/18 03:53:09;;;;;;;70.35;22.98;;;;;;;-14.34;86.96;98541.25;5054399;28;20483;-70
2021/01/18 03:55:36;;;;;;;65.72;20.63;;;;;;;-14.17;86.06;98531.72;5053756;28;20067;-69
2021/01/18 03:58:02;;;;;;;64.85;21.08;;;;;;;-14.19;85.98;98532.47;5053439;28;20135;-71
2021/01/18 04:00:31;;;;;;;65.47;20.02;;;;;;;-14.30;86.11;98538.03;5053839;28;20073;-70
2021/01/18 04:02:58;;;;;;;84.45;25.42;;;;;;;-14.23;85.69;98526.50;5035778;28;20052;-70
2021/01/18 04:05:26;;;;;;;89.85;26.40;;;;;;;-14.30;85.94;98538.03;5053392;28;20076;-70
2021/01/18 04:07:53;;;;;;;87.75;24.30;;;;;;;-14.30;86.33;98539.66;5035035;28;20045;-69
2021/01/18 04:10:23;;;;;;;96.20;25.73;;;;;;;-14.43;86.67;98519.09;5053309;28;20045;-70
2021/01/18 04:12:50;;;;;;;78.10;21.95;;;;;;;-14.42;87.44;98530.91;5053970;28;20049;-74
2021/01/18 04:15:19;;;;;;;87.20;26.25;;;;;;;-14.59;87.20;98506.81;5035519;28;20102;-71
2021/01/18 04:17:51;;;;;;;61.42;19.10;;;;;;;-14.52;87.95;98512.91;5053672;28;20499;-71
2021/01/18 04:20:19;;;;;;;61.72;17.85;;;;;;;-14.54;87.21;98520.41;5036396;28;20480;-69
2021/01/18 04:22:57;;;;;;;71.63;21.13;;;;;;;-14.66;87.07;98520.03;5052445;28;20047;-69
2021/01/18 04:25:27;;;;;;;67.47;22.55;;;;;;;-14.89;86.74;98501.59;5034851;28;20480;-71
2021/01/18 04:27:59;;;;;;;72.43;19.52;;;;;;;-14.85;86.98;98521.88;5053008;28;20114;-69
2021/01/18 04:30:30;;;;;;;45.88;16.13;;;;;;;-14.85;87.06;98514.34;5019440;28;20060;-69
2021/01/18 04:33:24;;;;;;;68.75;20.77;;;;;;;-14.87;86.71;98520.97;5035516;28;20041;-71
2021/01/18 04:35:50;;;;;;;71.63;20.45;;;;;;;-14.89;86.38;98511.66;5032693;28;20123;-73
2021/01/18 04:38:16;;;;;;;72.20;21.63;;;;;;;-14.75;86.38;98522.22;5053274;28;20431;-71
2021/01/18 04:40:42;;;;;;;68.25;22.23;;;;;;;-14.80;86.07;98527.06;5052998;28;20430;-71
2021/01/18 04:43:13;;;;;;;71.35;21.67;;;;;;;-15.13;85.55;98505.78;5052413;28;20049;-70
2021/01/18 04:45:40;;;;;;;72.85;21.75;;;;;;;-14.93;85.85;98529.94;5035431;28;20083;-71
2021/01/18 04:48:07;;;;;;;66.78;20.48;;;;;;;-14.98;85.65;98528.16;5034417;28;20049;-71
2021/01/18 04:50:33;;;;;;;66.22;19.50;;;;;;;-14.96;85.53;98521.50;5053061;28;20055;-70
2021/01/18 04:53:22;;;;;;;70.38;21.05;;;;;;;-15.01;85.73;98529.66;5052367;28;20484;-71
2021/01/18 04:56:39;;;;;;;68.72;19.45;;;;;;;-15.17;85.78;98528.25;5052805;28;20541;-70
2021/01/18 04:59:11;;;;;;;74.15;22.73;;;;;;;-14.95;87.17;98532.41;4994064;28;20508;-69
2021/01/18 05:01:41;;;;;;;75.28;22.52;;;;;;;-15.07;85.63;98542.00;5035790;28;20053;-71
2021/01/18 05:04:27;;;;;;;63.95;22.60;;;;;;;-15.19;86.14;98513.13;5034854;28;20052;-71
2021/01/18 05:06:59;;;;;;;78.68;23.00;;;;;;;-15.06;85.84;98533.69;5035066;28;20098;-73
2021/01/18 05:09:29;;;;;;;64.32;20.58;;;;;;;-15.24;85.77;98504.56;5052487;28;20480;-71
2021/01/18 05:11:57;;;;;;;67.88;23.27;;;;;;;-15.10;85.70;98526.81;5052402;28;20106;-72
2021/01/18 05:14:23;;;;;;;61.92;19.65;;;;;;;-15.24;86.71;98526.31;5052921;28;20045;-70
2021/01/18 05:16:58;;;;;;;67.28;21.58;;;;;;;-15.29;85.72;98518.59;5034578;28;20468;-70
2021/01/18 05:19:26;;;;;;;71.72;21.80;;;;;;;-15.45;85.92;98493.69;5052960;28;20135;-69
2021/01/18 05:21:52;;;;;;;53.67;20.50;;;;;;;-15.62;86.88;98496.41;5052651;28;20395;-70
2021/01/18 05:24:20;;;;;;;75.00;25.52;;;;;;;-15.56;86.88;98515.91;5051990;28;20055;-70
2021/01/18 05:27:08;;;;;;;80.00;25.85;;;;;;;-15.42;88.02;98517.28;5052674;28;20131;-69
2021/01/18 05:29:37;;;;;;;85.20;24.23;;;;;;;-15.50;86.97;98524.53;5053125;28;20049;-68
2021/01/18 05:32:25;;;;;;;68.15;22.98;;;;;;;-15.49;87.27;98510.28;5034431;28;20128;-68
2021/01/18 05:35:13;;;;;;;74.07;22.10;;;;;;;-15.38;87.90;98515.72;5053708;28;20102;-69
2021/01/18 05:38:01;;;;;;;85.70;28.48;;;;;;;-15.39;87.66;98521.56;5056122;28;20132;-69
2021/01/18 05:40:28;;;;;;;67.22;22.42;;;;;;;-15.35;88.33;98511.69;5055983;28;20061;-68
2021/01/18 05:43:01;;;;;;;82.25;22.15;;;;;;;-15.42;87.45;98514.75;5055875;28;20488;-72
2021/01/18 05:45:48;;;;;;;122.00;35.78;;;;;;;-15.36;88.39;98524.22;5056848;28;20049;-68
2021/01/18 05:48:26;;;;;;;69.30;23.45;;;;;;;-15.39;87.84;98524.09;5038256;28;20049;-69
2021/01/18 05:50:57;;;;;;;85.80;28.17;;;;;;;-15.39;87.80;98527.44;5056693;28;20045;-69
2021/01/18 05:53:28;;;;;;;94.72;27.45;;;;;;;-15.37;87.00;98532.53;5056065;28;20132;-70
2021/01/18 05:55:55;;;;;;;87.95;26.60;;;;;;;-15.33;87.73;98526.84;5055464;28;20455;-71
2021/01/18 05:58:32;;;;;;;89.60;27.95;;;;;;;-15.43;88.20;98499.63;5055408;28;20044;-70
2021/01/18 06:01:00;;;;;;;78.85;25.55;;;;;;;-15.31;87.06;98525.22;5037785;28;20072;-72
2021/01/18 06:03:31;;;;;;;67.88;21.10;;;;;;;-15.65;86.55;98511.38;5037865;28;20053;-71
2021/01/18 06:05:59;;;;;;;78.80;23.70;;;;;;;-15.51;86.50;98517.78;5055757;28;20056;-73
2021/01/18 06:08:26;;;;;;;86.95;23.40;;;;;;;-15.57;86.48;98504.97;5039091;28;20047;-70
2021/01/18 06:11:02;;;;;;;90.35;28.20;;;;;;;-15.56;86.56;98506.69;5055923;28;20048;-71
2021/01/18 06:13:33;;;;;;;108.18;30.08;;;;;;;-15.53;86.41;98499.28;5056013;28;20049;-71
2021/01/18 06:16:02;;;;;;;109.93;30.70;;;;;;;-15.34;86.13;98520.09;5056182;28;20053;-70
2021/01/18 06:18:30;;;;;;;114.93;33.08;;;;;;;-15.40;85.76;98515.66;5055293;28;20534;-70
2021/01/18 06:20:59;;;;;;;107.82;29.02;;;;;;;-15.35;85.75;98518.34;5037951;28;20041;-71
2021/01/18 06:23:25;;;;;;;92.03;26.38;;;;;;;-15.29;86.51;98525.28;5055682;28;20119;-73
2021/01/18 06:25:54;;;;;;;100.10;28.73;;;;;;;-15.21;87.37;98534.84;5055330;28;20121;-72
2021/01/18 06:28:24;;;;;;;69.82;19.60;;;;;;;-15.07;88.55;98542.00;5038081;28;20045;-72
2021/01/18 06:31:01;;;;;;;75.45;22.40;;;;;;;-15.11;87.45;98540.22;5056698;28;20037;-72
2021/01/18 06:33:44;;;;;;;78.57;21.88;;;;;;;-15.08;87.20;98533.63;5055672;28;20101;-73
2021/01/18 06:36:18;;;;;;;83.47;23.63;;;;;;;-15.19;86.79;98523.16;5055709;28;20392;-71
2021/01/18 06:38:57;;;;;;;95.55;28.38;;;;;;;-15.11;86.66;98535.19;5055225;28;20045;-73
2021/01/18 06:41:29;;;;;;;90.55;28.17;;;;;;;-15.24;86.24;98524.66;5037911;28;20055;-70
2021/01/18 06:43:57;;;;;;;91.97;28.38;;;;;;;-15.18;86.42;98539.97;5037903;28;20055;-73
2021/01/18 06:46:29;;;;;;;103.05;26.50;;;;;;;-15.10;86.63;98554.47;5037174;28;20052;-70
2021/01/18 06:48:55;;;;;;;115.93;31.70;;;;;;;-15.07;87.02;98544.53;5055243;28;20095;-72
2021/01/18 06:51:26;;;;;;;112.10;30.20;;;;;;;-15.10;86.90;98549.44;5055562;28;20048;-71
2021/01/18 06:53:58;;;;;;;93.32;26.52;;;;;;;-15.19;86.75;98558.38;5037795;28;20095;-72
2021/01/18 06:56:54;;;;;;;77.03;26.83;;;;;;;-15.24;86.90;98564.91;5055821;28;20045;-71
2021/01/18 06:59:40;;;;;;;81.78;23.83;;;;;;;-15.42;86.94;98539.06;5035548;28;20051;-69
2021/01/18 07:02:26;;;;;;;90.40;28.30;;;;;;;-15.19;86.93;98563.41;5055232;28;20045;-71
2021/01/18 07:05:04;;;;;;;94.50;26.73;;;;;;;-15.13;87.55;98563.63;5037780;28;20037;-72
2021/01/18 07:07:34;;;;;;;98.53;29.17;;;;;;;-15.14;87.47;98535.91;5054549;28;20124;-71
2021/01/18 07:10:10;;;;;;;115.32;30.88;;;;;;;-15.03;86.08;98558.94;5054682;28;20132;-70
2021/01/18 07:12:37;;;;;;;105.00;32.17;;;;;;;-15.05;85.87;98565.59;5055715;28;20049;-70
2021/01/18 07:15:09;;;;;;;113.05;30.30;;;;;;;-15.26;85.47;98546.34;5037014;28;20041;-69
2021/01/18 07:17:55;;;;;;;118.10;31.27;;;;;;;-15.10;85.65;98560.38;5036658;28;20412;-71
2021/01/18 07:20:29;;;;;;;97.25;30.50;;;;;;;-15.15;86.21;98532.56;5037175;28;20049;-72
2021/01/18 07:23:08;;;;;;;121.95;31.65;;;;;;;-15.02;85.50;98555.66;5054868;28;20060;-72
2021/01/18 07:25:40;;;;;;;126.18;35.45;;;;;;;-14.93;85.24;98553.47;5054238;28;20040;-73
2021/01/18 07:28:09;;;;;;;150.52;44.22;;;;;;;-14.72;85.61;98560.06;5054869;28;20041;-73
2021/01/18 07:30:37;;;;;;;139.18;42.00;;;;;;;-14.66;85.91;98552.72;5054237;28;20048;-71
2021/01/18 07:33:16;;;;;;;132.85;36.95;;;;;;;-14.79;85.98;98524.63;5036582;28;20080;-71
2021/01/18 07:35:46;;;;;;;125.28;37.03;;;;;;;-14.63;85.52;98535.22;5036809;28;20063;-73
2021/01/18 07:38:18;;;;;;;144.05;43.30;;;;;;;-14.45;85.58;98550.94;5036593;28;20376;-72
2021/01/18 07:41:07;;;;;;;127.97;35.85;;;;;;;-14.23;84.99;98549.16;5037012;28;20428;-73
2021/01/18 07:43:53;;;;;;;180.77;48.25;;;;;;;-14.11;84.20;98549.56;5037071;28;20469;-72
2021/01/18 07:46:25;;;;;;;189.45;50.42;;;;;;;-14.06;83.82;98525.38;5037137;28;20204;-73
2021/01/18 07:48:58;;;;;;;150.65;41.85;;;;;;;-14.09;83.55;98520.25;5053980;28;20123;-72
2021/01/18 07:51:28;;;;;;;145.93;42.47;;;;;;;-13.98;83.27;98538.22;5055087;28;20182;-72
2021/01/18 07:53:56;;;;;;;160.82;43.47;;;;;;;-13.83;82.86;98542.91;5054940;28;20041;-74
2021/01/18 07:56:24;;;;;;;145.20;40.95;;;;;;;-13.80;83.01;98543.00;5036933;28;20056;-78
2021/01/18 07:59:01;;;;;;;129.00;36.35;;;;;;;-13.89;82.78;98523.41;5053887;28;20123;-77
2021/01/18 08:01:33;;;;;;;148.57;43.33;;;;;;;-13.62;81.90;98549.44;5054645;28;20056;-75
2021/01/18 08:04:20;;;;;;;190.07;52.53;;;;;;;-13.65;81.39;98549.34;5055096;28;20464;-76
2021/01/18 08:07:06;;;;;;;128.07;37.33;;;;;;;-13.84;82.86;98550.44;5054303;28;20053;-78
2021/01/18 08:09:36;;;;;;;79.93;25.73;;;;;;;-13.82;82.86;98534.56;5055733;28;20045;-78
2021/01/18 08:12:34;;;;;;;119.68;34.88;;;;;;;-13.64;82.97;98544.34;5055414;28;20049;-73
2021/01/18 08:15:10;;;;;;;142.02;42.67;;;;;;;-13.32;82.05;98550.38;5023734;28;20432;-73
2021/01/18 08:17:37;;;;;;;150.98;43.97;;;;;;;-13.15;80.86;98550.03;5057765;28;20068;-72
2021/01/18 08:20:10;;;;;;;117.38;33.75;;;;;;;-13.29;81.59;98561.38;5057764;28;20048;-72
2021/01/18 08:22:37;;;;;;;;;;;;;;;-13.33;82.23;98561.28;5060140;28;20049;-74
2021/01/18 08:25:05;;;;;;;138.95;39.03;;;;;;;-13.12;81.93;98536.66;5041314;28;20358;-74
2021/01/18 08:28:01;;;;;;;124.93;38.83;;;;;;;-12.61;80.57;98565.03;5064872;28;20048;-75
2021/01/18 08:30:39;;;;;;;129.32;36.50;;;;;;;-12.37;78.35;98543.81;5042370;28;20053;-73
2021/01/18 08:33:16;;;;;;;106.80;28.92;;;;;;;-12.40;79.11;98563.06;5042105;28;20045;-75
2021/01/18 08:35:49;;;;;;;129.40;37.50;;;;;;;-11.91;77.38;98570.25;5060476;28;20048;-74
2021/01/18 08:38:25;;;;;;;169.90;48.78;;;;;;;-11.71;77.13;98573.28;5060366;28;20048;-74
2021/01/18 08:41:04;;;;;;;207.27;58.22;;;;;;;-11.39;75.45;98570.63;5059769;28;20041;-73
2021/01/18 08:43:51;;;;;;;182.35;54.10;;;;;;;-11.53;75.65;98577.91;5063726;28;20045;-77
2021/01/18 08:46:42;;;;;;;142.10;44.00;;;;;;;-11.84;75.93;98575.47;5040507;28;20079;-73
2021/01/18 08:49:31;;;;;;;110.07;32.88;;;;;;;-11.81;76.13;98538.44;5054705;28;20089;-72
2021/01/18 08:52:00;;;;;;;145.07;47.83;;;;;;;-10.60;73.03;98568.97;5056964;28;20067;-73
2021/01/18 08:54:39;;;;;;;161.55;49.88;;;;;;;-9.68;68.97;98550.34;5059254;28;20049;-75
2021/01/18 08:57:24;;;;;;;192.85;56.75;;;;;;;-9.16;66.48;98532.50;5056057;28;20057;-73
2021/01/18 09:00:11;;;;;;;238.35;73.78;;;;;;;-9.02;66.82;98556.44;5054496;28;20045;-73
2021/01/18 09:02:40;;;;;;;253.57;75.78;;;;;;;-9.26;67.38;98556.09;5054097;28;20045;-75
2021/01/18 09:05:20;;;;;;;228.70;72.25;;;;;;;-9.50;68.47;98554.00;5054065;28;20503;-72
2021/01/18 09:07:49;;;;;;;229.45;69.30;;;;;;;-9.51;68.70;98542.13;5035748;28;20136;-77
2021/01/18 09:10:19;;;;;;;241.80;77.70;;;;;;;-8.31;66.22;98562.38;5057372;28;20041;-75
2021/01/18 09:12:47;;;;;;;239.93;79.38;;;;;;;-6.87;59.84;98551.72;5059395;28;20069;-73
2021/01/18 09:15:16;;;;;;;225.57;78.32;;;;;;;-7.64;60.51;98552.88;5059964;28;20052;-72
2021/01/18 09:17:42;;;;;;;220.95;74.43;;;;;;;-7.11;59.42;98551.56;5058035;28;20057;-70
2021/01/18 09:20:11;;;;;;;214.95;70.32;;;;;;;-6.78;57.01;98548.38;5039297;28;20443;-75
2021/01/18 09:22:41;;;;;;;234.23;80.00;;;;;;;-6.78;58.60;98547.50;5039674;28;20045;-72
2021/01/18 09:25:10;;;;;;;226.18;71.85;;;;;;;-6.39;56.66;98525.56;5057837;28;20045;-73
2021/01/18 09:27:37;;;;;;;225.45;80.30;;;;;;;-6.16;56.91;98523.94;5057464;28;20072;-71
2021/01/18 09:30:17;;;;;;;209.60;74.82;;;;;;;-5.57;54.64;98524.81;5056964;28;20051;-70
2021/01/18 09:32:59;;;;;;;214.90;75.85;;;;;;;-5.86;53.84;98524.78;5057672;28;20044;-77
2021/01/18 09:35:28;;;;;;;206.82;78.47;;;;;;;-5.04;53.72;98524.78;5057357;28;20048;-77
2021/01/18 09:37:55;;;;;;;200.63;73.55;;;;;;;-4.79;52.28;98515.31;5039517;28;20120;-77
2021/01/18 09:40:22;;;;;;;176.13;66.88;;;;;;;-5.44;55.14;98507.81;5039822;28;20471;-77
2021/01/18 09:42:54;;;;;;;187.57;69.18;;;;;;;-5.29;52.43;98511.19;5057540;28;20463;-78
2021/01/18 09:45:20;;;;;;;;;;;;;;;-3.74;49.28;98514.78;5040107;28;20098;-79
2021/01/18 09:47:47;;;;;;;168.98;64.85;;;;;;;-4.91;50.99;98500.88;5056797;28;20346;-69
2021/01/18 09:50:19;;;;;;;182.23;72.85;;;;;;;-4.54;51.34;98507.56;5038506;28;20056;-71
2021/01/18 09:52:49;;;;;;;188.75;74.63;;;;;;;-4.66;50.50;98495.69;5056433;28;20115;-72
2021/01/18 09:55:16;;;;;;;192.07;72.53;;;;;;;-5.33;51.46;98522.25;5038582;28;20353;-70
2021/01/18 09:57:47;;;;;;;176.52;67.30;;;;;;;-6.74;56.89;98511.81;5056845;28;20045;-72
2021/01/18 10:00:16;;;;;;;188.10;69.57;;;;;;;-6.60;56.53;98496.59;5056379;28;20134;-73
2021/01/18 10:02:45;;;;;;;184.30;67.80;;;;;;;-6.78;57.88;98506.69;5022278;28;20073;-72
2021/01/18 10:05:20;;;;;;;157.80;58.15;;;;;;;-8.07;61.76;98512.59;5056610;28;20132;-73
2021/01/18 10:07:52;;;;;;;179.02;64.25;;;;;;;-8.12;62.21;98493.91;5038235;28;20544;-74
2021/01/18 10:10:18;;;;;;;145.47;48.57;;;;;;;-8.66;63.89;98512.00;5056098;28;20171;-73
2021/01/18 10:12:54;;;;;;;156.32;53.83;;;;;;;-8.36;64.10;98480.09;5038323;28;20044;-74
2021/01/18 10:15:27;;;;;;;173.35;59.65;;;;;;;-7.56;62.46;98506.25;5056732;28;20049;-74
2021/01/18 10:17:55;;;;;;;128.75;44.45;;;;;;;-8.02;62.83;98495.66;5056530;28;20086;-72
2021/01/18 10:20:30;;;;;;;158.65;59.85;;;;;;;-7.45;61.32;98491.03;5038398;28;20055;-72
2021/01/18 10:22:57;;;;;;;122.07;38.17;;;;;;;-7.60;61.92;98481.63;5055012;28;20052;-73
2021/01/18 10:25:31;;;;;;;128.77;41.42;;;;;;;-7.95;63.31;98496.59;5038439;28;20098;-74
2021/01/18 10:27:57;;;;;;;146.98;50.20;;;;;;;-7.85;64.01;98498.38;5056185;28;20059;-72
2021/01/18 10:30:29;;;;;;;140.70;46.17;;;;;;;-8.20;65.91;98488.75;5056479;28;20037;-73
2021/01/18 10:32:58;;;;;;;135.75;46.25;;;;;;;-7.93;66.26;98500.00;5055721;28;20073;-73
2021/01/18 10:35:31;;;;;;;150.52;50.90;;;;;;;-7.57;64.49;98499.47;5054690;28;20114;-73
2021/01/18 10:38:12;;;;;;;130.52;43.45;;;;;;;-8.22;65.96;98492.94;5055223;28;20469;-72
2021/01/18 10:40:39;;;;;;;141.80;47.25;;;;;;;-7.82;65.34;98497.56;5055767;28;20056;-72
2021/01/18 10:43:07;;;;;;;150.23;50.00;;;;;;;-7.70;65.68;98497.66;5055548;28;20045;-71
2021/01/18 10:45:39;;;;;;;138.45;48.25;;;;;;;-7.48;64.30;98500.38;5037914;28;20048;-72
2021/01/18 10:48:06;;;;;;;136.00;45.05;;;;;;;-7.03;63.46;98496.38;5055976;28;20119;-71
2021/01/18 10:50:33;;;;;;;124.35;40.85;;;;;;;-7.42;64.52;98497.84;5055171;28;20056;-71
2021/01/18 10:53:08;;;;;;;137.68;46.45;;;;;;;-7.81;64.44;98468.72;5056148;28;20446;-72
2021/01/18 10:55:38;;;;;;;129.60;43.53;;;;;;;-7.33;63.89;98491.97;5055819;28;20406;-75
2021/01/18 10:58:04;;;;;;;153.25;53.63;;;;;;;-6.28;62.22;98492.44;5037918;28;20086;-69
2021/01/18 11:00:31;;;;;;;124.05;45.03;;;;;;;-6.85;62.88;98467.59;5055198;28;20048;-75
2021/01/18 11:03:01;;;;;;;156.57;53.67;;;;;;;-6.40;62.93;98488.16;5054804;28;20059;-75
2021/01/18 11:05:32;;;;;;;158.73;51.58;;;;;;;-6.07;60.83;98483.97;5055806;28;20049;-70
2021/01/18 11:08:01;;;;;;;122.28;42.40;;;;;;;-7.00;62.93;98462.44;5054878;28;20045;-74
2021/01/18 11:10:28;;;;;;;128.68;45.00;;;;;;;-6.69;62.42;98460.84;5020351;28;20109;-72
2021/01/18 11:13:04;;;;;;;116.50;41.05;;;;;;;-6.21;60.50;98454.19;5037150;28;20076;-70
2021/01/18 11:15:34;;;;;;;154.88;52.67;;;;;;;-5.65;61.27;98474.59;5055813;28;20491;-81
2021/01/18 11:18:02;;;;;;;141.38;49.25;;;;;;;-4.72;58.60;98476.09;5055274;28;20098;-77
2021/01/18 11:20:31;;;;;;;129.48;47.50;;;;;;;-5.12;59.34;98472.81;5055075;28;20096;-74
2021/01/18 11:22:57;;;;;;;120.78;44.78;;;;;;;-5.17;61.69;98464.28;5054335;28;20376;-68
2021/01/18 11:25:24;;;;;;;114.07;42.15;;;;;;;-4.87;60.41;98458.25;5054115;28;20040;-71
2021/01/18 11:27:50;;;;;;;98.60;37.25;;;;;;;-4.96;59.53;98460.84;5055073;28;20067;-74
2021/01/18 11:30:17;;;;;;;113.75;40.55;;;;;;;-5.07;61.58;98453.19;5055437;28;20041;-74
2021/01/18 11:32:43;;;;;;;86.45;33.78;;;;;;;-5.85;64.68;98449.06;5054548;28;20450;-74